Time;durP1;ratioP1;P1;durP2;ratioP2;P2;SDS_P1;SDS_P2;PMS_P1;PMS_P2;Temp;Humidity;BMP_temperature;BMP_pressure;BME280_temperature;BME280_humidity;BME280_pressure;Samples;Min_cycle;Max_cycle;Signal;HPM_P1;HPM_P2
2023/03/23 00:00:38;;;;;;;7.20;5.47;;;11.50;99.90;;;;;;4936035;29;20561;-74
2023/03/23 00:03:04;;;;;;;7.78;6.22;;;11.50;99.90;;;;;;4935339;29;20211;-74
2023/03/23 00:05:30;;;;;;;9.43;6.75;;;11.50;99.90;;;;;;4950796;29;20219;-74
2023/03/23 00:07:56;;;;;;;10.70;7.20;;;11.50;99.90;;;;;;4949927;29;20231;-74
2023/03/23 00:10:24;;;;;;;15.90;8.45;;;11.50;99.90;;;;;;4934714;29;20199;-74
2023/03/23 00:12:49;;;;;;;13.18;9.55;;;11.60;99.90;;;;;;4936136;29;20176;-74
2023/03/23 00:15:16;;;;;;;15.40;10.10;;;11.60;99.90;;;;;;4936222;29;20224;-74
2023/03/23 00:17:43;;;;;;;15.40;11.50;;;11.60;99.90;;;;;;4935414;29;20179;-74
2023/03/23 00:20:11;;;;;;;17.73;12.77;;;11.60;99.90;;;;;;4935937;29;20216;-74
2023/03/23 00:22:37;;;;;;;22.70;14.00;;;11.60;99.90;;;;;;4935828;29;20183;-74
2023/03/23 00:25:08;;;;;;;21.13;16.42;;;11.60;99.90;;;;;;4935342;29;20194;-75
2023/03/23 00:27:34;;;;;;;19.90;14.52;;;11.60;99.90;;;;;;4935549;29;20187;-74
2023/03/23 00:30:01;;;;;;;15.73;11.60;;;11.70;99.90;;;;;;4950636;28;20270;-74
2023/03/23 00:32:29;;;;;;;14.27;9.88;;;11.70;99.90;;;;;;4934302;29;20719;-75
2023/03/23 00:34:58;;;;;;;12.68;10.18;;;11.70;99.90;;;;;;4935600;29;20225;-74
2023/03/23 00:37:25;;;;;;;15.73;10.77;;;11.70;99.90;;;;;;4949787;29;20176;-75
2023/03/23 00:39:51;;;;;;;15.10;11.63;;;11.60;99.90;;;;;;4938766;29;20290;-74
2023/03/23 00:42:17;;;;;;;18.95;13.25;;;11.60;99.90;;;;;;4937540;29;20651;-75
2023/03/23 00:44:43;;;;;;;21.83;15.68;;;11.60;99.90;;;;;;4937484;29;20243;-75
2023/03/23 00:47:10;;;;;;;21.05;15.30;;;11.60;99.90;;;;;;4953322;29;20184;-76
2023/03/23 00:49:38;;;;;;;25.15;16.95;;;11.60;99.90;;;;;;4953327;28;20192;-75
2023/03/23 00:52:05;;;;;;;22.65;17.45;;;11.60;99.90;;;;;;4938663;29;20245;-78
2023/03/23 00:54:33;;;;;;;23.35;17.73;;;11.60;99.90;;;;;;4921704;28;20604;-73
2023/03/23 00:56:59;;;;;;;25.98;18.80;;;11.70;99.90;;;;;;4938500;29;20175;-78
2023/03/23 00:59:25;;;;;;;25.00;18.73;;;11.70;99.90;;;;;;4937249;29;20218;-72
2023/03/23 01:01:51;;;;;;;26.50;18.17;;;11.70;99.90;;;;;;4938349;29;20179;-74
2023/03/23 01:04:18;;;;;;;22.20;15.40;;;11.70;99.90;;;;;;4937810;29;20206;-74
2023/03/23 01:06:44;;;;;;;19.58;12.73;;;11.70;99.90;;;;;;4952851;28;20183;-75
2023/03/23 01:09:16;;;;;;;17.67;10.73;;;11.70;99.90;;;;;;4937041;29;20319;-74
2023/03/23 01:11:45;;;;;;;12.02;8.70;;;11.70;99.90;;;;;;4938672;29;20262;-74
2023/03/23 01:14:13;;;;;;;9.10;5.88;;;11.70;99.90;;;;;;4937030;29;20649;-74
2023/03/23 01:16:39;;;;;;;7.75;5.95;;;11.70;99.90;;;;;;4937993;29;20202;-75
2023/03/23 01:19:05;;;;;;;7.05;4.70;;;11.70;99.90;;;;;;4938211;29;20254;-74
2023/03/23 01:21:31;;;;;;;8.73;3.42;;;11.70;99.90;;;;;;4937838;29;20187;-75
2023/03/23 01:23:57;;;;;;;7.93;3.80;;;11.70;99.90;;;;;;4938159;29;20608;-76
2023/03/23 01:26:25;;;;;;;5.88;3.35;;;11.70;99.90;;;;;;4937786;29;20222;-77
2023/03/23 01:28:51;;;;;;;7.90;4.18;;;11.60;99.90;;;;;;4937996;29;20662;-75
2023/03/23 01:31:20;;;;;;;7.63;4.40;;;11.60;99.90;;;;;;4937750;29;20183;-74
2023/03/23 01:33:47;;;;;;;9.30;4.88;;;11.60;99.90;;;;;;4937646;29;20571;-74
2023/03/23 01:36:16;;;;;;;7.78;5.90;;;11.60;99.90;;;;;;4952646;29;20183;-75
2023/03/23 01:38:45;;;;;;;9.20;6.32;;;11.60;99.90;;;;;;4952437;28;20226;-74
2023/03/23 01:41:11;;;;;;;12.02;7.53;;;11.60;99.90;;;;;;4953256;29;20215;-76
2023/03/23 01:44:03;;;;;;;13.00;7.18;;;11.60;99.90;;;;;;4952590;28;20651;-78
2023/03/23 01:46:43;;;;;;;12.43;7.95;;;11.60;99.90;;;;;;4952734;28;20199;-75
2023/03/23 01:49:41;;;;;;;13.52;8.35;;;11.60;99.90;;;;;;4936971;29;20180;-74
2023/03/23 01:52:23;;;;;;;16.70;8.57;;;11.60;99.90;;;;;;4951809;29;20294;-74
2023/03/23 01:54:55;;;;;;;13.98;8.65;;;11.60;99.90;;;;;;4952226;29;20175;-74
2023/03/23 01:57:23;;;;;;;12.77;9.30;;;11.70;99.90;;;;;;4937263;29;20632;-74
2023/03/23 01:59:53;;;;;;;13.50;9.45;;;11.70;99.90;;;;;;4952125;29;20218;-74
2023/03/23 02:02:23;;;;;;;18.25;9.40;;;11.70;99.90;;;;;;4952345;29;20289;-74
2023/03/23 02:04:51;;;;;;;16.23;9.05;;;11.70;99.90;;;;;;4937853;29;20222;-74
2023/03/23 02:07:20;;;;;;;12.48;9.07;;;11.70;99.90;;;;;;4936905;29;20223;-74
2023/03/23 02:09:47;;;;;;;17.83;9.30;;;11.70;99.90;;;;;;4935954;29;20372;-74
2023/03/23 02:12:13;;;;;;;13.98;9.23;;;11.80;99.90;;;;;;4935884;29;20187;-75
2023/03/23 02:14:39;;;;;;;14.57;9.15;;;11.80;99.90;;;;;;4936157;29;20190;-74
2023/03/23 02:17:11;;;;;;;19.50;9.15;;;11.80;99.90;;;;;;4935880;29;20190;-74
2023/03/23 02:19:52;;;;;;;21.20;8.75;;;11.80;99.90;;;;;;4937019;29;20195;-74
2023/03/23 02:22:26;;;;;;;11.50;8.65;;;11.80;99.90;;;;;;4936614;29;20182;-74
2023/03/23 02:25:03;;;;;;;15.15;8.23;;;11.80;99.90;;;;;;4952365;29;20270;-74
2023/03/23 02:27:29;;;;;;;13.00;7.38;;;11.80;99.90;;;;;;4951776;29;20238;-74
2023/03/23 02:30:04;;;;;;;12.82;8.30;;;11.80;99.90;;;;;;4951427;29;20198;-79
2023/03/23 02:32:54;;;;;;;13.55;7.82;;;11.90;99.90;;;;;;4936712;29;20183;-75
2023/03/23 02:35:25;;;;;;;13.35;8.02;;;11.90;99.90;;;;;;4946030;28;20215;-74
2023/03/23 02:38:04;;;;;;;14.65;8.32;;;11.90;99.90;;;;;;4936503;29;20167;-74
2023/03/23 02:40:43;;;;;;;14.63;8.50;;;11.90;99.90;;;;;;4935630;29;20219;-75
2023/03/23 02:43:17;;;;;;;9.68;7.07;;;11.90;99.90;;;;;;4935209;29;20179;-74
2023/03/23 02:45:45;;;;;;;16.27;7.35;;;11.90;99.90;;;;;;4951628;28;20187;-77
2023/03/23 02:48:15;;;;;;;11.52;7.22;;;11.90;99.90;;;;;;4951415;29;20183;-73
2023/03/23 02:50:44;;;;;;;15.07;7.43;;;11.90;99.90;;;;;;4951048;29;20595;-74
2023/03/23 02:53:13;;;;;;;13.82;7.45;;;11.90;99.90;;;;;;4936133;29;20638;-74
2023/03/23 02:55:42;;;;;;;10.73;6.68;;;11.90;99.90;;;;;;4936202;29;20654;-73
2023/03/23 02:58:12;;;;;;;11.38;7.28;;;11.90;99.90;;;;;;4951314;28;20187;-74
2023/03/23 03:00:42;;;;;;;16.00;7.28;;;11.90;99.90;;;;;;4935192;29;20215;-74
2023/03/23 03:03:14;;;;;;;14.93;6.53;;;12.00;99.90;;;;;;4919121;29;20211;-74
2023/03/23 03:06:06;;;;;;;13.95;6.93;;;12.00;99.90;;;;;;4935255;29;20175;-74
2023/03/23 03:09:07;;;;;;;11.63;6.30;;;12.00;99.90;;;;;;4936121;29;20273;-75
2023/03/23 03:11:36;;;;;;;14.45;6.47;;;12.00;99.90;;;;;;4948965;28;20305;-80
2023/03/23 03:14:29;;;;;;;11.05;6.05;;;12.00;99.90;;;;;;4935638;29;20500;-75
2023/03/23 03:17:05;;;;;;;11.65;5.80;;;12.00;99.90;;;;;;4935073;29;20171;-76
2023/03/23 03:19:42;;;;;;;9.63;5.88;;;12.00;99.90;;;;;;4934826;29;20202;-75
2023/03/23 03:22:08;;;;;;;12.30;6.00;;;12.00;99.90;;;;;;4950842;29;20619;-75
2023/03/23 03:24:42;;;;;;;10.68;6.03;;;12.00;99.90;;;;;;4935595;29;20194;-76
2023/03/23 03:27:16;;;;;;;13.68;6.18;;;12.00;99.90;;;;;;4936500;29;20218;-76
2023/03/23 03:29:51;;;;;;;9.65;5.45;;;12.00;99.90;;;;;;4934973;29;20620;-75
2023/03/23 03:32:23;;;;;;;11.15;5.72;;;12.00;99.90;;;;;;4950829;29;20171;-75
2023/03/23 03:34:50;;;;;;;8.88;5.35;;;12.00;99.90;;;;;;4935046;29;20175;-75
2023/03/23 03:37:18;;;;;;;11.05;5.35;;;12.00;99.90;;;;;;4934664;29;20183;-75
2023/03/23 03:39:46;;;;;;;12.75;5.13;;;12.00;99.90;;;;;;4950434;29;20353;-75
2023/03/23 03:42:12;;;;;;;13.07;5.47;;;12.00;99.90;;;;;;4918485;29;20274;-75
2023/03/23 03:44:38;;;;;;;11.07;5.03;;;12.00;99.90;;;;;;4935292;29;20183;-76
2023/03/23 03:47:03;;;;;;;8.15;4.97;;;12.00;99.90;;;;;;4934746;29;20529;-76
2023/03/23 03:49:30;;;;;;;10.70;4.93;;;12.00;99.90;;;;;;4935273;29;20278;-75
2023/03/23 03:51:56;;;;;;;11.05;5.60;;;12.00;99.90;;;;;;4935222;29;20695;-75
2023/03/23 03:54:35;;;;;;;10.15;5.35;;;12.00;99.90;;;;;;4951204;28;20233;-75
2023/03/23 03:57:00;;;;;;;8.10;5.05;;;12.00;99.90;;;;;;4934494;29;20251;-76
2023/03/23 03:59:45;;;;;;;10.27;4.70;;;12.00;99.90;;;;;;4936003;29;20222;-76
2023/03/23 04:02:31;;;;;;;9.80;5.45;;;12.00;99.90;;;;;;4935309;29;20287;-75
2023/03/23 04:04:57;;;;;;;12.27;5.20;;;12.00;99.90;;;;;;4935533;29;20282;-75
2023/03/23 04:07:26;;;;;;;10.55;4.57;;;12.00;99.90;;;;;;4950746;29;20234;-76
2023/03/23 04:09:53;;;;;;;11.65;4.47;;;11.90;99.90;;;;;;4934593;29;20195;-75
2023/03/23 04:12:20;;;;;;;7.82;4.10;;;11.90;99.90;;;;;;4950718;29;20189;-76
2023/03/23 04:14:54;;;;;;;8.70;3.95;;;11.90;99.90;;;;;;4938317;29;20631;-76
2023/03/23 04:17:20;;;;;;;9.18;4.55;;;11.80;99.90;;;;;;4939021;29;20666;-75
2023/03/23 04:19:47;;;;;;;8.68;3.38;;;11.80;99.90;;;;;;4938320;29;20306;-75
2023/03/23 04:22:16;;;;;;;6.47;2.70;;;11.80;99.90;;;;;;4953988;28;20195;-76
2023/03/23 04:24:42;;;;;;;3.75;1.80;;;11.70;99.90;;;;;;4938738;29;20279;-75
2023/03/23 04:27:13;;;;;;;5.38;1.80;;;11.70;99.90;;;;;;4938171;29;20199;-76
2023/03/23 04:29:39;;;;;;;5.70;2.03;;;11.60;99.90;;;;;;4922194;29;20191;-77
2023/03/23 04:32:31;;;;;;;3.30;1.85;;;11.50;99.90;;;;;;4943414;28;20679;-75
2023/03/23 04:34:59;;;;;;;5.05;2.42;;;11.50;99.90;;;;;;4939416;29;20214;-76
2023/03/23 04:37:34;;;;;;;3.95;2.50;;;11.40;99.90;;;;;;4953793;29;20183;-79
2023/03/23 04:40:00;;;;;;;5.80;2.55;;;11.40;99.90;;;;;;4922871;29;20203;-75
2023/03/23 04:42:31;;;;;;;7.65;2.30;;;11.40;99.90;;;;;;4937858;29;20204;-75
2023/03/23 04:45:21;;;;;;;4.38;2.05;;;11.40;99.90;;;;;;4939494;29;20263;-76
2023/03/23 04:47:57;;;;;;;4.20;1.95;;;11.30;99.90;;;;;;4937450;29;20186;-75
2023/03/23 04:50:30;;;;;;;4.88;2.25;;;11.30;99.90;;;;;;4953760;29;20187;-78
2023/03/23 04:53:03;;;;;;;6.00;1.98;;;11.30;99.90;;;;;;4954169;29;20175;-77
2023/03/23 04:55:38;;;;;;;8.20;2.22;;;11.30;99.90;;;;;;4953633;29;20764;-75
2023/03/23 04:58:07;;;;;;;9.50;2.50;;;11.30;99.90;;;;;;4937678;29;20178;-75
2023/03/23 05:00:38;;;;;;;6.53;2.10;;;11.30;99.90;;;;;;4953524;29;20215;-76
2023/03/23 05:03:07;;;;;;;7.88;2.40;;;11.20;99.90;;;;;;4938108;29;20183;-75
2023/03/23 05:05:34;;;;;;;8.55;2.65;;;11.20;99.90;;;;;;4938817;29;20180;-73
2023/03/23 05:08:05;;;;;;;5.75;1.92;;;11.20;99.90;;;;;;4949593;28;20229;-75
2023/03/23 05:10:35;;;;;;;11.05;2.75;;;11.20;99.90;;;;;;4958798;28;20239;-74
2023/03/23 05:13:06;;;;;;;11.05;2.38;;;11.30;99.90;;;;;;4953982;29;20210;-75
2023/03/23 05:15:32;;;;;;;8.77;3.03;;;11.30;99.90;;;;;;4937216;29;20628;-74
2023/03/23 05:17:59;;;;;;;9.95;3.17;;;11.30;99.90;;;;;;4953524;28;20524;-77
2023/03/23 05:20:25;;;;;;;11.65;3.35;;;11.30;99.90;;;;;;4937094;29;20211;-75
2023/03/23 05:22:59;;;;;;;15.75;3.47;;;11.30;99.90;;;;;;4953818;29;20217;-74
2023/03/23 05:25:30;;;;;;;13.55;3.90;;;11.30;99.90;;;;;;4951728;28;20211;-74
2023/03/23 05:28:04;;;;;;;13.82;4.05;;;11.30;99.90;;;;;;4954344;29;20627;-78
2023/03/23 05:30:49;;;;;;;15.30;4.53;;;11.40;99.90;;;;;;4954376;29;20215;-75
2023/03/23 05:33:16;;;;;;;11.63;4.10;;;11.40;99.90;;;;;;4953796;29;20562;-75
2023/03/23 05:35:50;;;;;;;16.98;4.35;;;11.40;99.90;;;;;;4954288;29;20187;-74
2023/03/23 05:38:19;;;;;;;15.27;4.68;;;11.40;99.90;;;;;;4937792;28;20184;-74
2023/03/23 05:40:45;;;;;;;16.92;4.30;;;11.40;99.90;;;;;;4937144;29;20215;-74
2023/03/23 05:43:14;;;;;;;14.93;3.90;;;11.40;99.90;;;;;;4938371;29;20243;-74
2023/03/23 05:45:58;;;;;;;13.70;4.30;;;11.50;99.90;;;;;;4938687;29;20575;-74
2023/03/23 05:48:24;;;;;;;17.50;4.15;;;11.50;99.90;;;;;;4921262;29;20183;-73
2023/03/23 05:50:51;;;;;;;15.02;3.83;;;11.50;99.90;;;;;;4938574;29;20191;-74
2023/03/23 05:53:19;;;;;;;18.23;3.60;;;11.50;99.90;;;;;;4936685;29;20189;-74
2023/03/23 05:55:45;;;;;;;15.35;3.90;;;11.50;99.90;;;;;;4936012;29;20328;-75
2023/03/23 05:58:35;;;;;;;19.25;3.88;;;11.50;99.90;;;;;;4936226;29;20189;-74
2023/03/23 06:01:06;;;;;;;20.75;4.00;;;11.40;99.90;;;;;;4920941;29;20235;-73
2023/03/23 06:03:32;;;;;;;24.23;3.67;;;11.40;99.90;;;;;;4936205;29;20195;-75
2023/03/23 06:06:04;;;;;;;14.70;4.10;;;11.40;99.90;;;;;;4936545;29;20282;-81
2023/03/23 06:08:44;;;;;;;19.95;4.18;;;11.40;99.90;;;;;;4952933;29;20167;-73
2023/03/23 06:11:11;;;;;;;19.33;3.75;;;11.40;99.90;;;;;;4951822;29;20237;-74
2023/03/23 06:13:44;;;;;;;26.70;4.32;;;11.40;99.90;;;;;;4936819;29;20188;-75
2023/03/23 06:16:10;;;;;;;28.05;4.28;;;11.40;99.90;;;;;;4920728;29;20188;-75
2023/03/23 06:18:46;;;;;;;19.15;3.97;;;11.40;99.90;;;;;;4936385;29;20194;-74
2023/03/23 06:21:33;;;;;;;21.92;4.18;;;11.40;99.90;;;;;;4952113;29;20202;-78
2023/03/23 06:24:10;;;;;;;22.65;4.05;;;11.40;99.90;;;;;;4937253;29;20255;-75
2023/03/23 06:26:40;;;;;;;21.52;4.47;;;11.40;99.90;;;;;;4936478;29;20187;-76
2023/03/23 06:29:12;;;;;;;22.88;4.55;;;11.50;99.90;;;;;;4952260;28;20636;-74
2023/03/23 06:31:55;;;;;;;28.75;4.90;;;11.50;99.90;;;;;;4936630;29;20190;-78
2023/03/23 06:34:21;;;;;;;22.88;3.75;;;11.50;99.90;;;;;;4952380;29;20234;-75
2023/03/23 06:37:26;;;;;;;25.80;4.05;;;11.50;99.90;;;;;;4953246;28;20670;-83
2023/03/23 06:40:01;;;;;;;17.40;4.10;;;11.50;99.90;;;;;;4954330;28;20612;-75
2023/03/23 06:42:36;;;;;;;22.33;3.70;;;11.50;99.90;;;;;;4951043;28;20195;-76
2023/03/23 06:45:21;;;;;;;20.00;3.78;;;11.50;99.90;;;;;;4952275;29;20636;-74
2023/03/23 06:47:51;;;;;;;19.92;3.85;;;11.50;99.90;;;;;;4951297;29;20195;-74
2023/03/23 06:50:17;;;;;;;12.65;2.85;;;11.50;99.90;;;;;;4951564;29;20198;-74
2023/03/23 06:52:50;;;;;;;13.57;3.10;;;11.40;99.90;;;;;;4951391;29;20187;-74
2023/03/23 06:55:17;;;;;;;14.20;3.92;;;11.40;99.90;;;;;;4951501;29;20179;-73
2023/03/23 06:57:44;;;;;;;8.38;2.95;;;11.30;99.90;;;;;;4936374;29;20184;-74
2023/03/23 07:00:13;;;;;;;20.90;3.47;;;11.30;99.90;;;;;;4934956;29;20639;-76
2023/03/23 07:02:40;;;;;;;12.18;3.58;;;11.30;99.90;;;;;;4935183;28;20662;-74
2023/03/23 07:05:11;;;;;;;14.45;2.45;;;11.30;99.90;;;;;;4934983;29;20202;-73
2023/03/23 07:07:39;;;;;;;12.45;2.22;;;11.20;99.90;;;;;;4936177;29;20187;-73
2023/03/23 07:10:18;;;;;;;12.07;2.60;;;11.10;99.90;;;;;;4934811;29;20598;-74
2023/03/23 07:12:47;;;;;;;15.02;2.70;;;11.10;99.90;;;;;;4919012;29;20241;-73
2023/03/23 07:15:15;;;;;;;14.05;3.03;;;11.10;99.90;;;;;;4934666;29;20632;-73
2023/03/23 07:17:45;;;;;;;10.57;2.55;;;11.10;99.90;;;;;;4950797;28;20175;-75
2023/03/23 07:20:17;;;;;;;15.60;3.00;;;11.20;99.90;;;;;;4951423;29;20226;-74
2023/03/23 07:22:43;;;;;;;14.88;3.15;;;11.10;99.90;;;;;;4936268;29;20246;-75
2023/03/23 07:25:23;;;;;;;17.10;3.40;;;11.20;99.90;;;;;;4950787;28;20273;-75
2023/03/23 07:27:52;;;;;;;13.77;3.30;;;11.20;99.90;;;;;;4935975;29;20190;-74
2023/03/23 07:30:18;;;;;;;15.00;3.08;;;11.20;99.90;;;;;;4951192;28;20285;-76
2023/03/23 07:32:43;;;;;;;20.98;3.80;;;11.20;99.90;;;;;;4936033;29;20273;-74
2023/03/23 07:35:10;;;;;;;18.08;3.67;;;11.20;99.90;;;;;;4935864;28;20219;-74
2023/03/23 07:37:48;;;;;;;17.33;3.53;;;11.30;99.90;;;;;;4934790;29;20191;-76
2023/03/23 07:40:16;;;;;;;20.33;4.07;;;11.30;99.90;;;;;;4935783;29;20214;-76
2023/03/23 07:42:51;;;;;;;27.88;4.55;;;11.40;99.90;;;;;;4934466;29;20179;-74
2023/03/23 07:45:26;;;;;;;24.52;4.95;;;11.50;99.90;;;;;;4951196;29;20191;-75
2023/03/23 07:47:52;;;;;;;31.60;5.35;;;11.60;99.90;;;;;;4935038;29;20219;-75
2023/03/23 07:50:22;;;;;;;27.80;5.75;;;11.60;99.90;;;;;;4938465;29;20652;-74
2023/03/23 07:52:48;;;;;;;28.30;4.75;;;11.70;99.90;;;;;;4953899;29;20183;-74
2023/03/23 07:55:18;;;;;;;30.48;4.50;;;11.80;99.90;;;;;;4938476;29;20184;-75
2023/03/23 07:58:00;;;;;;;25.50;4.53;;;11.90;99.90;;;;;;4938885;29;20278;-75
2023/03/23 08:00:27;;;;;;;28.23;5.50;;;12.00;99.90;;;;;;4954124;28;20326;-75
2023/03/23 08:02:56;;;;;;;28.02;4.90;;;12.10;99.90;;;;;;4937955;29;20183;-75
2023/03/23 08:05:42;;;;;;;26.85;5.43;;;12.10;99.90;;;;;;4939528;29;20238;-74
2023/03/23 08:08:26;;;;;;;29.33;5.20;;;12.20;99.90;;;;;;4954196;29;20168;-74
2023/03/23 08:11:24;;;;;;;26.02;4.65;;;12.30;99.90;;;;;;4939015;29;20346;-74
2023/03/23 08:14:11;;;;;;;32.08;5.35;;;12.40;99.90;;;;;;4957338;28;20203;-75
2023/03/23 08:16:52;;;;;;;33.35;5.57;;;12.50;99.90;;;;;;4951740;29;20193;-74
2023/03/23 08:19:45;;;;;;;32.58;5.28;;;12.50;99.90;;;;;;4952435;28;20302;-75
2023/03/23 08:22:30;;;;;;;27.02;4.88;;;12.50;99.90;;;;;;4925132;29;20198;-75
2023/03/23 08:25:27;;;;;;;26.95;4.60;;;12.60;99.90;;;;;;4937902;29;20191;-75
2023/03/23 08:28:10;;;;;;;29.88;4.43;;;12.60;99.90;;;;;;4953475;29;20171;-76
2023/03/23 08:30:54;;;;;;;32.70;5.25;;;12.70;99.90;;;;;;4937800;29;20187;-74
2023/03/23 08:33:41;;;;;;;31.77;5.65;;;12.80;99.90;;;;;;4925515;29;20612;-74
2023/03/23 08:36:25;;;;;;;36.60;5.80;;;12.80;99.90;;;;;;4938311;29;20179;-74
2023/03/23 08:39:17;;;;;;;30.08;4.72;;;12.90;99.90;;;;;;4953574;29;20199;-74
2023/03/23 08:42:06;;;;;;;34.17;4.80;;;12.90;99.90;;;;;;4944372;28;20199;-74
2023/03/23 08:45:06;;;;;;;29.60;5.20;;;12.90;99.90;;;;;;4954925;28;20195;-78
2023/03/23 08:47:54;;;;;;;28.02;5.15;;;13.00;99.90;;;;;;4951082;29;20205;-74
2023/03/23 08:50:28;;;;;;;26.45;4.68;;;13.20;99.90;;;;;;4938618;29;20183;-75
2023/03/23 08:53:09;;;;;;;25.92;4.68;;;13.40;99.90;;;;;;4938500;29;20198;-75
2023/03/23 08:55:49;;;;;;;33.20;5.22;;;13.60;99.90;;;;;;4951791;29;20273;-74
2023/03/23 08:58:15;;;;;;;24.73;4.55;;;13.90;99.90;;;;;;4938317;29;20666;-74
2023/03/23 09:01:00;;;;;;;26.08;4.85;;;14.10;99.90;;;;;;4938686;29;20686;-79
2023/03/23 09:03:46;;;;;;;32.38;5.35;;;14.40;99.90;;;;;;4938493;29;20247;-77
2023/03/23 09:06:27;;;;;;;27.67;4.85;;;14.50;99.90;;;;;;4953565;29;20179;-75
2023/03/23 09:08:55;;;;;;;33.92;5.43;;;14.60;99.90;;;;;;4953345;29;20187;-75
2023/03/23 09:11:21;;;;;;;29.17;5.43;;;14.50;99.90;;;;;;4938793;29;20231;-74
2023/03/23 09:13:47;;;;;;;29.25;5.63;;;14.50;99.90;;;;;;4937740;29;20681;-75
2023/03/23 09:16:13;;;;;;;30.13;5.07;;;14.50;99.90;;;;;;4937811;29;20187;-74
2023/03/23 09:18:39;;;;;;;30.08;5.03;;;14.60;99.90;;;;;;4938322;29;20180;-75
2023/03/23 09:21:06;;;;;;;28.92;5.93;;;14.70;99.90;;;;;;4937733;29;20219;-76
2023/03/23 09:23:32;;;;;;;26.17;5.03;;;14.70;99.90;;;;;;4937569;29;20183;-74
2023/03/23 09:26:01;;;;;;;28.80;5.07;;;14.60;99.90;;;;;;4937515;29;20180;-73
2023/03/23 09:28:27;;;;;;;30.00;4.90;;;14.40;99.90;;;;;;4936844;29;20175;-74
2023/03/23 09:30:58;;;;;;;29.08;4.90;;;14.40;99.90;;;;;;4937833;29;20184;-74
2023/03/23 09:33:25;;;;;;;36.88;5.43;;;14.30;99.90;;;;;;4938482;29;20539;-73
2023/03/23 09:35:51;;;;;;;35.38;5.53;;;14.20;99.90;;;;;;4937702;29;20282;-78
2023/03/23 09:38:17;;;;;;;28.10;5.40;;;14.30;99.90;;;;;;4937718;29;20183;-73
2023/03/23 09:40:53;;;;;;;28.55;5.45;;;14.50;99.90;;;;;;4920337;29;20230;-78
2023/03/23 09:43:38;;;;;;;27.83;4.65;;;14.80;99.90;;;;;;4937212;29;20160;-73
2023/03/23 09:46:26;;;;;;;32.38;5.20;;;15.20;99.90;;;;;;4937316;29;20171;-73
2023/03/23 09:48:58;;;;;;;34.67;5.53;;;15.70;99.90;;;;;;4937449;29;20171;-73
2023/03/23 09:51:40;;;;;;;31.83;5.88;;;16.10;99.90;;;;;;4937372;29;20187;-73
2023/03/23 09:54:20;;;;;;;23.33;4.88;;;16.40;99.90;;;;;;4952746;29;20266;-72
2023/03/23 09:56:47;;;;;;;26.90;5.30;;;16.60;99.90;;;;;;4936037;29;20647;-74
2023/03/23 10:00:04;;;;;;;23.67;5.20;;;16.70;99.90;;;;;;4937335;29;20295;-73
2023/03/23 10:02:45;;;;;;;25.35;4.63;;;16.70;99.90;;;;;;4916010;29;20563;-72
2023/03/23 10:05:19;;;;;;;17.40;4.00;;;16.50;99.90;;;;;;4935021;29;20195;-73
2023/03/23 10:07:45;;;;;;;22.30;4.60;;;16.30;99.90;;;;;;4951424;29;20175;-73
2023/03/23 10:10:13;;;;;;;22.10;4.45;;;16.10;99.90;;;;;;4936171;29;20356;-72
2023/03/23 10:12:45;;;;;;;25.10;4.63;;;16.00;99.90;;;;;;4936496;29;20171;-75
2023/03/23 10:15:20;;;;;;;26.98;4.53;;;16.00;99.90;;;;;;4936681;29;20164;-73
2023/03/23 10:17:51;;;;;;;27.20;4.78;;;16.00;99.90;;;;;;4937037;29;20171;-72
2023/03/23 10:20:53;;;;;;;23.42;4.32;;;15.90;99.90;;;;;;4937469;29;20552;-72
2023/03/23 10:23:18;;;;;;;19.30;4.03;;;15.80;99.90;;;;;;4936584;29;20171;-72
2023/03/23 10:25:54;;;;;;;21.95;4.10;;;15.70;99.90;;;;;;4951750;29;20184;-72
2023/03/23 10:28:46;;;;;;;20.50;3.65;;;15.70;99.90;;;;;;4936429;29;20230;-72
2023/03/23 10:31:17;;;;;;;22.38;4.10;;;15.80;99.90;;;;;;4936466;29;20174;-74
2023/03/23 10:33:49;;;;;;;19.90;4.15;;;15.70;99.90;;;;;;4936708;29;20186;-76
2023/03/23 10:36:28;;;;;;;16.95;3.72;;;15.60;99.90;;;;;;4936349;29;20183;-74
2023/03/23 10:39:11;;;;;;;22.27;4.30;;;15.50;99.90;;;;;;4936410;29;20643;-74
2023/03/23 10:41:38;;;;;;;24.40;4.47;;;15.40;99.90;;;;;;4936165;29;20203;-76
2023/03/23 10:44:31;;;;;;;29.02;4.75;;;15.20;99.90;;;;;;4950971;29;20179;-74
2023/03/23 10:47:06;;;;;;;28.40;4.72;;;15.10;99.90;;;;;;4935177;28;20203;-74
2023/03/23 10:49:49;;;;;;;24.35;4.55;;;15.00;99.90;;;;;;4936623;29;20167;-73
2023/03/23 10:52:32;;;;;;;24.38;4.22;;;15.10;99.90;;;;;;4936088;29;20168;-74
2023/03/23 10:55:04;;;;;;;26.70;4.80;;;15.10;99.90;;;;;;4936624;29;20190;-73
2023/03/23 10:57:33;;;;;;;24.77;4.53;;;15.00;99.90;;;;;;4936073;29;20175;-76
2023/03/23 11:00:06;;;;;;;23.67;4.47;;;15.00;99.90;;;;;;4951004;28;20284;-75
2023/03/23 11:02:36;;;;;;;21.58;4.07;;;14.90;99.90;;;;;;4936723;29;20176;-73
2023/03/23 11:05:07;;;;;;;30.35;5.18;;;15.00;99.90;;;;;;4936540;29;20166;-72
2023/03/23 11:07:35;;;;;;;24.88;4.63;;;15.20;99.90;;;;;;4935956;29;20168;-73
2023/03/23 11:10:18;;;;;;;25.55;5.00;;;15.30;99.90;;;;;;4935712;29;20698;-73
2023/03/23 11:12:46;;;;;;;25.55;5.18;;;15.40;99.90;;;;;;4935846;29;20569;-73
2023/03/23 11:15:34;;;;;;;23.92;4.95;;;15.50;99.90;;;;;;4950543;29;20179;-72
2023/03/23 11:18:03;;;;;;;28.25;4.68;;;15.70;99.90;;;;;;4936372;29;20156;-74
2023/03/23 11:20:35;;;;;;;21.35;4.45;;;15.80;99.90;;;;;;4951062;29;20211;-74
2023/03/23 11:23:07;;;;;;;20.70;3.83;;;16.00;99.90;;;;;;4936105;29;20171;-73
2023/03/23 11:25:35;;;;;;;20.42;4.00;;;16.20;99.90;;;;;;4936298;29;20582;-74
2023/03/23 11:28:01;;;;;;;20.92;3.55;;;16.40;99.90;;;;;;4950941;29;20187;-73
2023/03/23 11:30:31;;;;;;;21.13;3.67;;;16.50;99.90;;;;;;4936128;29;20183;-75
2023/03/23 11:33:01;;;;;;;16.63;3.83;;;16.60;99.90;;;;;;4935674;29;20636;-74
2023/03/23 11:35:28;;;;;;;19.58;4.00;;;16.60;99.90;;;;;;4936038;29;20175;-74
2023/03/23 11:37:58;;;;;;;17.48;3.58;;;16.50;99.90;;;;;;4935729;29;20187;-73
2023/03/23 11:40:31;;;;;;;16.40;3.50;;;16.40;99.90;;;;;;4935532;29;20250;-74
2023/03/23 11:43:12;;;;;;;17.98;3.50;;;16.40;99.90;;;;;;4951142;29;20186;-74
2023/03/23 11:45:40;;;;;;;19.98;3.65;;;16.40;99.90;;;;;;4935589;29;20258;-79
2023/03/23 11:48:27;;;;;;;11.52;3.17;;;16.40;99.90;;;;;;4950688;29;20199;-74
2023/03/23 11:50:59;;;;;;;17.33;3.33;;;16.50;99.90;;;;;;4935987;29;20246;-75
2023/03/23 11:53:43;;;;;;;13.30;3.20;;;16.60;99.90;;;;;;4935867;29;20194;-74
2023/03/23 11:56:37;;;;;;;17.17;3.38;;;16.70;99.90;;;;;;4934807;29;20231;-74
2023/03/23 11:59:10;;;;;;;17.08;3.15;;;16.90;99.90;;;;;;4936221;29;20266;-74
2023/03/23 12:01:36;;;;;;;18.52;3.45;;;17.00;99.90;;;;;;4935574;29;20200;-77
2023/03/23 12:04:50;;;;;;;13.23;2.90;;;17.10;99.90;;;;;;4950417;29;20194;-72
2023/03/23 12:07:47;;;;;;;15.43;2.67;;;17.20;99.90;;;;;;4917011;29;20200;-72
2023/03/23 12:10:52;;;;;;;13.98;2.67;;;17.20;99.90;;;;;;4935969;29;20322;-72
2023/03/23 12:13:29;;;;;;;17.45;2.88;;;17.30;99.90;;;;;;4936091;29;20250;-73
2023/03/23 12:16:17;;;;;;;14.32;3.03;;;17.30;99.20;;;;;;4935847;29;20171;-72
2023/03/23 12:19:13;;;;;;;16.58;2.97;;;17.20;98.70;;;;;;4935721;29;20176;-75
2023/03/23 12:21:39;;;;;;;16.38;3.17;;;17.30;98.80;;;;;;4935769;29;20274;-74
2023/03/23 12:24:37;;;;;;;13.38;3.00;;;17.30;98.30;;;;;;4936146;29;20611;-73
2023/03/23 12:27:27;;;;;;;15.82;2.85;;;17.30;97.60;;;;;;4935942;29;20164;-73
2023/03/23 12:29:58;;;;;;;12.23;2.58;;;17.20;97.20;;;;;;4936351;29;20187;-74
2023/03/23 12:32:33;;;;;;;14.00;3.10;;;17.20;96.90;;;;;;4935658;29;20186;-73
2023/03/23 12:35:01;;;;;;;16.63;3.00;;;17.10;96.70;;;;;;4952621;28;20182;-73
2023/03/23 12:37:45;;;;;;;13.13;2.88;;;17.10;96.70;;;;;;4939069;29;20175;-72
2023/03/23 12:40:34;;;;;;;11.65;2.75;;;17.10;96.50;;;;;;4938016;28;20571;-74
2023/03/23 12:43:17;;;;;;;17.95;3.38;;;17.20;96.50;;;;;;4938977;29;20216;-74
2023/03/23 12:46:12;;;;;;;14.15;2.72;;;17.20;96.40;;;;;;4939652;29;20168;-73
2023/03/23 12:48:42;;;;;;;14.85;3.30;;;17.20;96.40;;;;;;4953434;29;20248;-73
2023/03/23 12:51:34;;;;;;;17.48;3.22;;;17.20;96.20;;;;;;4939018;29;20219;-73
2023/03/23 12:54:18;;;;;;;12.90;2.40;;;17.10;96.20;;;;;;4939154;29;20212;-74
2023/03/23 12:57:09;;;;;;;19.40;2.90;;;17.10;96.30;;;;;;4939049;29;20179;-76
2023/03/23 12:59:47;;;;;;;13.40;2.90;;;17.00;96.40;;;;;;4953447;29;20211;-72
2023/03/23 13:02:19;;;;;;;14.30;3.08;;;17.00;96.10;;;;;;4938652;29;20203;-73
2023/03/23 13:04:51;;;;;;;17.60;3.65;;;16.80;95.70;;;;;;4953197;29;20222;-72
2023/03/23 13:07:25;;;;;;;16.40;2.85;;;16.70;95.80;;;;;;4938491;29;20179;-73
2023/03/23 13:10:19;;;;;;;20.88;3.08;;;16.60;95.60;;;;;;4953162;29;20310;-73
2023/03/23 13:12:47;;;;;;;13.25;3.17;;;16.60;95.40;;;;;;4938989;29;20207;-73